Latest Weather Observations for Tewantin

IDQ60801

Issued at 7:22 pm EST Wednesday 20 June 2018 (issued every 10 minutes, with the page automatically refreshed every 10 minutes)

About weather observations | Map of weather stations | Latest weather observations for QLD | Other Formats
Station Details ID: 040908 Name: TEWANTIN RSL PARK Lat: -26.39 Lon: 153.04 Height: 6.4 m
Data from the previous 72 hours. | See also: Recent months at Tewantin
Date/Time
EST
Temp
°C
App
Temp
°C
Dew
Point
°C
Rel
Hum
%
Delta-T
°C
Wind Press
QNH
hPa
Press
MSL
hPa
Rain since
9am
mm
Dir  Spd
km/h
Gust
km/h
Spd
kts
Gust
kts
20/07:00pm 15.3 15.5 10.5 73 2.5 CALM 0 2 0 1 1022.9 1022.9 0.0
20/06:30pm 16.4 15.7 10.0 66 3.4 SW 4 7 2 4 1022.6 1022.6 0.0
20/06:00pm 16.6 16.7 10.0 65 3.5 CALM 0 0 0 0 1022.2 1022.2 0.0
20/05:30pm 17.5 16.2 9.9 61 4.0 S 7 9 4 5 1021.8 1021.8 0.0
20/05:00pm 18.5 17.3 10.3 59 4.4 S 7 11 4 6 1021.8 1021.8 0.0
20/04:30pm 18.6 16.9 9.7 56 4.7 SSE 9 17 5 9 1021.3 1021.3 0.0
20/04:00pm 19.4 16.9 9.6 53 5.2 SSE 13 22 7 12 1021.1 1021.1 0.0
20/03:30pm 20.0 16.4 9.9 52 5.4 S 19 32 10 17 1020.8 1020.8 0.0
20/03:00pm 20.2 16.3 9.5 50 5.7 S 20 32 11 17 1020.6 1020.6 0.0
20/02:30pm 20.2 16.8 9.2 49 5.8 SSE 17 35 9 19 1020.4 1020.4 0.0
20/02:00pm 20.2 17.3 9.7 51 5.6 SSE 15 32 8 17 1020.4 1020.4 0.0
20/01:30pm 20.3 16.6 9.5 50 5.8 S 19 30 10 16 1020.4 1020.4 0.0
20/01:00pm 19.9 15.9 9.2 50 5.6 S 20 32 11 17 1020.2 1020.2 0.0
20/12:30pm 19.9 16.1 9.2 50 5.7 SSE 19 30 10 16 1020.8 1020.8 0.0
20/12:00pm 19.5 15.3 8.2 48 5.8 S 20 33 11 18 1020.9 1020.9 0.0
20/11:30am 19.4 15.4 8.4 49 5.7 S 19 35 10 19 1021.4 1021.4 0.0
20/11:00am 19.0 15.8 8.4 50 5.5 SSE 15 30 8 16 1021.7 1021.7 0.0
20/10:30am 18.8 16.7 8.2 50 5.5 SSW 9 17 5 9 1022.3 1022.3 0.0
20/10:00am 18.4 16.3 8.1 51 5.3 SSW 9 17 5 9 1022.5 1022.5 0.0
20/09:30am 17.3 15.4 7.6 53 4.9 WSW 7 11 4 6 1022.7 1022.7 0.0
20/09:00am 16.5 14.9 8.2 58 4.2 W 6 9 3 5 1022.6 1022.6 0.0
20/08:30am 14.3 12.8 6.9 61 3.6 W 4 7 2 4 1022.7 1022.7 0.0
20/08:00am 11.6 9.7 6.5 71 2.4 N 6 7 3 4 1022.6 1022.6 0.0
20/07:30am 9.3 8.5 6.4 82 1.3 CALM 0 6 0 3 1022.3 1022.3 0.0
20/07:00am 7.8 5.7 5.8 87 0.9 NNW 6 6 3 3 1022.0 1022.0 0.0
20/06:30am 7.9 6.9 5.5 85 1.1 CALM 0 0 0 0 1021.5 1021.5 0.0
20/06:00am 8.1 6.8 3.9 75 1.8 CALM 0 0 0 0 1021.0 1021.0 0.0
20/05:30am 8.6 7.4 4.4 75 1.8 CALM 0 0 0 0 1020.8 1020.8 0.0
20/05:00am 8.5 6.7 3.6 71 2.1 WSW 2 7 1 4 1020.6 1020.6 0.0
20/04:30am 9.0 7.2 3.6 69 2.3 SW 2 9 1 5 1020.5 1020.5 0.0
20/04:00am 9.6 7.1 3.8 67 2.5 WSW 6 11 3 6 1020.3 1020.3 0.0
20/03:30am 9.2 6.5 3.6 68 2.4 WSW 7 13 4 7 1020.5 1020.5 0.0
20/03:00am 9.3 6.7 4.1 70 2.3 WSW 7 13 4 7 1020.2 1020.2 0.0
20/02:30am 8.9 7.1 5.5 79 1.5 WNW 4 7 2 4 1020.1 1020.1 0.0
20/02:00am 9.3 7.0 4.9 74 2.0 WNW 6 7 3 4 1020.0 1020.0 0.0
20/01:30am 9.7 8.1 4.7 71 2.2 WNW 2 7 1 4 1020.0 1020.0 0.0
20/01:00am 9.0 7.8 4.6 74 1.9 CALM 0 0 0 0 1019.8 1019.8 0.0
20/12:30am 9.2 8.2 5.4 77 1.7 CALM 0 0 0 0 1019.8 1019.8 0.0
20/12:00am 9.6 7.8 5.4 75 1.9 WSW 4 7 2 4 1019.7 1019.7 0.0
 
Date/Time
EST
Temp
°C
App
Temp
°C
Dew
Point
°C
Rel
Hum
%
Delta-T
°C
Wind Press
QNH
hPa
Press
MSL
hPa
Rain since
9am
mm
Dir  Spd
km/h
Gust
km/h
Spd
kts
Gust
kts
19/11:30pm 10.1 9.1 5.7 74 2.0 CALM 0 0 0 0 1019.9 1019.9 0.0
19/11:00pm 9.8 8.5 4.2 68 2.5 CALM 0 2 0 1 1020.0 1020.0 0.0
19/10:30pm 10.2 9.2 5.6 73 2.1 CALM 0 0 0 0 1020.0 1020.0 0.0
19/10:00pm 11.9 9.6 2.9 54 3.9 SW 4 7 2 4 1020.0 1020.0 0.0
19/09:30pm 12.5 10.2 2.9 52 4.2 SW 4 7 2 4 1019.9 1019.9 0.0
19/09:00pm 12.8 10.2 3.2 52 4.2 SSW 6 13 3 7 1019.8 1019.8 0.0
19/08:30pm 12.2 10.0 3.2 54 4.0 WSW 4 6 2 3 1019.6 1019.6 0.0
19/08:00pm 11.8 9.4 4.1 59 3.4 SW 6 9 3 5 1019.2 1019.2 0.0
19/07:30pm 12.1 10.2 2.6 52 4.1 W 2 7 1 4 1019.0 1019.0 0.0
19/07:00pm 13.0 10.4 3.1 51 4.4 WSW 6 9 3 5 1018.4 1018.4 0.0
19/06:30pm 13.4 10.7 2.9 49 4.7 WSW 6 11 3 6 1018.1 1018.1 0.0
19/06:00pm 13.6 11.3 2.8 48 4.8 W 4 7 2 4 1018.1 1018.1 0.0
19/05:30pm 14.4 12.3 2.0 43 5.4 WSW 2 7 1 4 1018.0 1018.0 0.0
19/05:00pm 16.7 13.3 1.6 36 6.7 WSW 9 15 5 8 1017.6 1017.6 0.0
19/04:30pm 17.8 14.0 1.7 34 7.2 WSW 11 19 6 10 1017.7 1017.7 0.0
19/04:00pm 18.2 14.0 1.7 33 7.4 SW 13 30 7 16 1017.4 1017.4 0.0
19/03:30pm 18.6 14.0 1.6 32 7.7 WSW 15 24 8 13 1017.0 1017.0 0.0
19/03:00pm 18.4 13.5 2.3 34 7.3 SSW 17 30 9 16 1017.1 1017.1 0.0
19/02:30pm 19.2 15.2 2.6 33 7.7 SW 13 20 7 11 1017.1 1017.1 0.0
19/02:00pm 19.5 15.9 2.8 33 7.8 WSW 11 22 6 12 1017.0 1017.0 0.0
19/01:30pm 18.9 14.4 2.3 33 7.6 WSW 15 30 8 16 1017.1 1017.1 0.0
19/01:00pm 19.1 15.1 2.9 34 7.5 WSW 13 26 7 14 1017.4 1017.4 0.0
19/12:30pm 19.5 16.0 3.6 35 7.5 WSW 11 19 6 10 1017.7 1017.7 0.0
19/12:00pm 19.1 14.8 3.3 35 7.4 SSW 15 22 8 12 1018.1 1018.1 0.0
19/11:30am 19.0 15.7 4.7 39 6.9 SW 11 19 6 10 1018.6 1018.6 0.0
19/11:00am 17.9 13.6 3.4 38 6.7 SW 15 26 8 14 1019.3 1019.3 0.0
19/10:30am 16.8 12.5 3.5 41 6.1 WSW 15 26 8 14 1019.7 1019.7 0.0
19/10:00am 16.3 12.6 4.4 45 5.6 WSW 13 26 7 14 1019.8 1019.8 0.0
19/09:30am 15.5 12.2 4.8 49 5.0 WSW 11 20 6 11 1019.7 1019.7 0.0
19/09:00am 15.1 12.6 4.8 50 4.8 WSW 7 13 4 7 1019.4 1019.4 0.0
19/08:30am 13.4 10.4 4.3 54 4.2 W 9 17 5 9 1019.0 1019.0 0.0
19/08:00am 13.0 10.5 3.9 54 4.1 WNW 6 11 3 6 1019.1 1019.1 0.0
19/07:30am 12.0 9.4 4.0 58 3.6 W 7 13 4 7 1019.3 1019.3 0.0
19/07:00am 10.7 8.1 4.0 63 3.0 WNW 7 13 4 7 1018.7 1018.7 0.0
19/06:30am 9.9 8.1 3.4 64 2.8 WSW 2 7 1 4 1018.4 1018.4 0.0
19/06:00am 10.7 7.6 3.7 62 3.1 W 9 13 5 7 1018.0 1018.0 0.0
19/05:30am 9.9 8.1 3.6 65 2.7 W 2 7 1 4 1018.1 1018.1 0.0
19/05:00am 10.5 7.7 3.3 61 3.1 WNW 7 11 4 6 1018.0 1018.0 0.0
19/04:30am 11.5 8.8 3.5 58 3.5 SW 7 11 4 6 1018.1 1018.1 0.0
19/04:00am 11.1 8.9 3.4 59 3.4 SW 4 7 2 4 1018.1 1018.1 0.0
19/03:30am 12.0 9.3 3.5 56 3.8 WSW 7 13 4 7 1018.1 1018.1 0.0
19/03:00am 12.0 8.9 3.5 56 3.8 WSW 9 17 5 9 1018.3 1018.3 0.0
19/02:30am 12.5 8.7 3.7 55 3.9 SW 13 20 7 11 1018.1 1018.1 0.0
19/02:00am 12.7 8.5 3.6 54 4.1 SW 15 24 8 13 1018.3 1018.3 0.0
19/01:30am 12.5 9.4 3.5 54 4.0 WSW 9 19 5 10 1018.3 1018.3 0.0
19/01:00am 12.9 9.4 3.6 53 4.2 WSW 11 20 6 11 1018.6 1018.6 0.0
19/12:30am 11.6 9.0 3.1 56 3.7 W 6 11 3 6 1018.8 1018.8 0.0
19/12:00am 13.1 9.9 2.9 50 4.5 SW 9 19 5 10 1018.8 1018.8 0.0
 
Date/Time
EST
Temp
°C
App
Temp
°C
Dew
Point
°C
Rel
Hum
%
Delta-T
°C
Wind Press
QNH
hPa
Press
MSL
hPa
Rain since
9am
mm
Dir  Spd
km/h
Gust
km/h
Spd
kts
Gust
kts
18/11:30pm 13.2 9.6 3.0 50 4.5 WSW 11 22 6 12 1018.8 1018.8 0.0
18/11:00pm 13.1 9.9 2.9 50 4.5 SW 9 19 5 10 1019.0 1019.0 0.0
18/10:30pm 13.0 10.1 2.8 50 4.5 WSW 7 13 4 7 1019.2 1019.2 0.0
18/10:00pm 13.0 9.8 3.1 51 4.4 WSW 9 15 5 8 1019.1 1019.1 0.0
18/09:30pm 13.5 10.8 3.6 51 4.5 WSW 7 15 4 8 1019.3 1019.3 0.0
18/09:00pm 11.3 9.6 3.8 60 3.3 W 2 6 1 3 1019.3 1019.3 0.0
18/08:30pm 11.1 9.3 5.4 68 2.6 E 4 9 2 5 1019.3 1019.3 0.0
18/08:00pm 11.6 9.5 5.9 68 2.6 NW 6 7 3 4 1019.2 1019.2 0.0
18/07:30pm 11.6 10.3 5.9 68 2.7 N 2 7 1 4 1019.1 1019.1 0.0
18/07:00pm 12.7 10.9 3.4 53 4.1 W 2 9 1 5 1018.7 1018.7 0.0
18/06:30pm 13.5 10.9 3.3 50 4.6 W 6 9 3 5 1018.3 1018.3 0.0
18/06:00pm 13.2 10.9 3.0 50 4.5 WNW 4 9 2 5 1018.0 1018.0 0.0
18/05:30pm 14.0 12.1 2.6 46 5.0 SW 2 9 1 5 1017.6 1017.6 0.0
18/05:00pm 15.4 13.5 2.6 42 5.7 WNW 2 15 1 8 1017.1 1017.1 0.0
18/04:30pm 17.3 13.6 2.1 36 6.8 WSW 11 20 6 11 1016.7 1016.7 0.0
18/04:00pm 17.5 13.2 1.1 33 7.2 WSW 13 22 7 12 1016.5 1016.5 0.0
18/03:30pm 17.9 13.6 1.0 32 7.5 WSW 13 22 7 12 1016.3 1016.3 0.0
18/03:00pm 18.1 13.4 1.2 32 7.5 WSW 15 30 8 16 1016.2 1016.2 0.0
18/02:30pm 18.4 14.5 1.0 31 7.7 WSW 11 24 6 13 1016.1 1016.1 0.0
18/02:00pm 18.7 14.0 0.8 30 7.9 WSW 15 24 8 13 1016.6 1016.6 0.0
18/01:30pm 18.5 14.2 1.1 31 7.8 W 13 22 7 12 1016.8 1016.8 0.0
18/01:00pm 17.8 13.7 2.5 36 7.0 WSW 13 24 7 13 1017.0 1017.0 0.0
18/12:30pm 17.4 13.1 1.0 33 7.2 WSW 13 28 7 15 1017.7 1017.7 0.0
18/12:00pm 17.3 13.1 1.7 35 7.0 WSW 13 22 7 12 1018.3 1018.3 0.0
18/11:30am 17.0 13.0 3.0 39 6.4 SW 13 22 7 12 1018.9 1018.9 0.0
18/11:00am 16.0 11.3 0.6 35 6.6 SW 15 26 8 14 1019.4 1019.4 0.0
18/10:30am 15.8 11.3 1.9 39 6.2 SW 15 28 8 15 1019.5 1019.5 0.0
18/10:00am 15.0 10.1 2.2 42 5.6 WSW 17 28 9 15 1019.8 1019.8 0.0
18/09:30am 14.2 9.6 1.8 43 5.4 SW 15 30 8 16 1020.0 1020.0 0.0
18/09:00am 14.3 11.3 2.2 44 5.3 SW 7 17 4 9 1020.2 1020.2 0.0
18/08:30am 13.0 9.7 2.6 49 4.6 SW 9 26 5 14 1020.1 1020.1 0.0
18/08:00am 12.0 8.7 2.2 51 4.2 W 9 17 5 9 1020.0 1020.0 0.0
18/07:30am 10.3 7.6 2.4 58 3.4 W 6 15 3 8 1019.9 1019.9 0.0
18/07:00am 8.5 6.1 1.9 63 2.7 W 4 7 2 4 1020.0 1020.0 0.0
18/06:30am 7.9 5.4 1.5 64 2.6 W 4 7 2 4 1019.8 1019.8 0.0
18/06:00am 7.7 4.8 1.3 64 2.6 WNW 6 9 3 5 1019.5 1019.5 0.0
18/05:30am 8.1 5.0 1.3 62 2.8 NW 7 9 4 5 1019.5 1019.5 0.0
18/05:00am 8.1 4.9 0.8 60 2.9 NW 7 9 4 5 1019.3 1019.3 0.0
18/04:30am 8.4 5.4 0.9 59 3.0 WNW 6 9 3 5 1019.4 1019.4 0.0
18/04:00am 8.5 5.8 0.5 57 3.2 W 4 9 2 5 1019.4 1019.4 0.0
18/03:30am 8.7 6.0 0.4 56 3.3 WNW 4 7 2 4 1019.3 1019.3 0.0
18/03:00am 9.2 6.6 0.9 56 3.4 W 4 11 2 6 1019.4 1019.4 0.0
18/02:30am 8.5 6.1 1.9 63 2.7 W 4 7 2 4 1019.5 1019.5 0.0
18/02:00am 8.1 6.1 2.1 66 2.5 W 2 7 1 4 1019.6 1019.6 0.0
18/01:30am 8.0 6.0 2.3 67 2.4 N 2 7 1 4 1019.8 1019.8 0.0
18/01:00am 7.9 5.2 2.4 68 2.3 NW 6 9 3 5 1020.0 1020.0 0.0
18/12:30am 9.0 7.0 4.6 74 1.9 N 4 9 2 5 1020.1 1020.1 0.0
18/12:00am 9.3 7.6 1.7 59 3.1 CALM 0 6 0 3 1020.3 1020.3 0.0
 
Date/Time
EST
Temp
°C
App
Temp
°C
Dew
Point
°C
Rel
Hum
%
Delta-T
°C
Wind Press
QNH
hPa
Press
MSL
hPa
Rain since
9am
mm
Dir  Spd
km/h
Gust
km/h
Spd
kts
Gust
kts
17/11:30pm 9.5 7.4 1.4 57 3.3 W 2 6 1 3 1020.3 1020.3 0.0
17/11:00pm 10.6 8.5 1.4 53 3.8 W 2 7 1 4 1020.4 1020.4 0.0
17/10:30pm 11.2 8.3 1.5 51 4.1 W 6 7 3 4 1020.5 1020.5 0.0
17/10:00pm 10.9 8.0 1.4 52 4.0 WNW 6 9 3 5 1020.5 1020.5 0.0
17/09:30pm 10.5 8.1 4.4 66 2.7 NNW 6 9 3 5 1020.2 1020.2 0.0
17/09:00pm 11.4 9.3 1.4 50 4.2 WSW 2 9 1 5 1019.9 1019.9 0.0
17/08:30pm 11.3 9.6 2.1 53 3.9 CALM 0 6 0 3 1020.1 1020.1 0.0
17/08:00pm 11.8 10.5 4.1 59 3.4 CALM 0 6 0 3 1020.0 1020.0 0.0
17/07:30pm 12.5 10.0 3.5 54 4.0 WSW 6 7 3 4 1019.7 1019.7 0.0

Other Formats:

Comma delimited format used in spreadsheet applications
http://www.bom.gov.au/fwo/IDQ60801/IDQ60801.94570.axf

JavaScript Object Notation format (JSON) in row-major order
http://www.bom.gov.au/fwo/IDQ60801/IDQ60801.94570.json